Time;durP1;ratioP1;P1;durP2;ratioP2;P2;SDS_P1;SDS_P2;PMS_P1;PMS_P2;Temp;Humidity;BMP_temperature;BMP_pressure;BME280_temperature;BME280_humidity;BME280_pressure;Samples;Min_cycle;Max_cycle;Signal;HPM_P1;HPM_P2
2021/10/17 00:01:58;;;;;;;62.97;24.33;;;5.80;99.90;;;;;;4436956;28;657720;-74
2021/10/17 00:04:46;;;;;;;62.37;23.73;;;5.80;99.90;;;;;;4418132;28;657775;-74
2021/10/17 00:07:33;;;;;;;64.47;25.30;;;5.80;99.90;;;;;;4431650;28;658669;-74
2021/10/17 00:10:24;;;;;;;53.63;21.93;;;5.80;99.90;;;;;;4416028;28;657613;-75
2021/10/17 00:13:12;;;;;;;64.03;23.83;;;5.80;99.90;;;;;;4413717;28;657924;-74
2021/10/17 00:16:00;;;;;;;50.13;20.50;;;5.70;99.90;;;;;;4435435;28;657397;-74
2021/10/17 00:18:47;;;;;;;61.23;22.30;;;5.70;99.90;;;;;;4411564;28;658884;-74
2021/10/17 00:21:35;;;;;;;63.33;23.37;;;5.70;99.90;;;;;;4438777;28;657657;-75
2021/10/17 00:24:22;;;;;;;65.83;26.13;;;5.70;99.90;;;;;;4414559;28;658438;-74
2021/10/17 00:27:11;;;;;;;57.60;24.07;;;5.70;99.90;;;;;;4439271;28;657381;-75
2021/10/17 00:29:59;;;;;;;58.57;24.37;;;5.80;99.90;;;;;;4413877;28;657590;-74
2021/10/17 00:32:46;;;;;;;54.70;23.70;;;5.70;99.90;;;;;;4423865;28;658038;-74
2021/10/17 00:35:35;;;;;;;63.87;25.33;;;5.80;99.90;;;;;;4445041;28;657736;-75
2021/10/17 00:38:22;;;;;;;61.97;26.70;;;5.80;99.90;;;;;;4421994;28;657831;-74
2021/10/17 00:41:10;;;;;;;57.10;25.30;;;5.70;99.90;;;;;;4429998;28;657932;-74
2021/10/17 00:43:59;;;;;;;63.47;24.43;;;5.80;99.90;;;;;;4432108;28;658528;-74
2021/10/17 00:46:47;;;;;;;46.93;21.10;;;5.70;99.90;;;;;;4412990;28;657766;-74
2021/10/17 00:49:34;;;;;;;51.80;22.83;;;5.70;99.90;;;;;;4443636;28;658023;-74
2021/10/17 00:52:22;;;;;;;54.53;23.23;;;5.70;99.90;;;;;;4421635;28;657580;-74
2021/10/17 00:55:11;;;;;;;58.03;24.83;;;5.70;99.90;;;;;;4442485;28;657469;-74
2021/10/17 00:58:00;;;;;;;60.50;23.17;;;5.70;99.90;;;;;;4414939;28;658643;-74
2021/10/17 01:00:49;;;;;;;57.00;22.93;;;5.60;99.90;;;;;;4419804;28;658358;-74
2021/10/17 01:03:37;;;;;;;50.80;22.33;;;5.60;99.90;;;;;;4424858;28;658260;-74
2021/10/17 01:06:24;;;;;;;54.00;22.47;;;5.60;99.90;;;;;;4443039;28;657774;-74
2021/10/17 01:09:12;;;;;;;63.20;26.03;;;5.60;99.90;;;;;;4415144;28;658273;-75
2021/10/17 01:12:00;;;;;;;54.67;24.57;;;5.60;99.90;;;;;;4431799;28;657559;-74
2021/10/17 01:14:47;;;;;;;54.57;23.77;;;5.60;99.90;;;;;;4415374;28;659278;-75
2021/10/17 01:17:36;;;;;;;63.57;28.20;;;5.60;99.90;;;;;;4431355;28;657680;-74
2021/10/17 01:20:25;;;;;;;66.67;29.90;;;5.60;99.90;;;;;;4409653;28;657908;-74
2021/10/17 01:23:13;;;;;;;71.07;30.20;;;5.70;99.90;;;;;;4412945;28;658586;-75
2021/10/17 01:26:01;;;;;;;69.13;31.27;;;5.60;99.90;;;;;;4418673;28;657618;-74
2021/10/17 01:28:49;;;;;;;60.40;26.30;;;5.60;99.90;;;;;;4434634;28;658258;-74
2021/10/17 01:31:37;;;;;;;57.80;25.23;;;5.60;99.90;;;;;;4416684;28;657901;-75
2021/10/17 01:34:26;;;;;;;56.47;25.77;;;5.50;99.90;;;;;;4440058;28;657688;-74
2021/10/17 01:37:14;;;;;;;65.27;28.33;;;5.50;99.90;;;;;;4412458;28;658367;-74
2021/10/17 01:40:02;;;;;;;69.10;29.33;;;5.50;99.90;;;;;;4413271;28;658178;-74
2021/10/17 01:42:50;;;;;;;62.77;29.20;;;5.60;99.90;;;;;;4438607;28;657410;-75
2021/10/17 01:45:37;;;;;;;74.30;30.97;;;5.60;99.90;;;;;;4414667;28;659036;-75
2021/10/17 01:48:25;;;;;;;68.77;32.63;;;5.50;99.90;;;;;;4431483;28;658486;-75
2021/10/17 01:51:13;;;;;;;74.10;32.93;;;5.60;99.90;;;;;;4436479;28;658481;-75
2021/10/17 01:54:03;;;;;;;77.13;31.10;;;5.60;99.90;;;;;;4415330;28;657257;-75
2021/10/17 01:56:51;;;;;;;63.77;28.20;;;5.60;99.90;;;;;;4418976;28;657515;-74
2021/10/17 01:59:39;;;;;;;64.28;28.38;;;5.50;99.90;;;;;;4438028;28;658833;-74
2021/10/17 02:02:26;;;;;;;61.72;28.15;;;5.50;99.90;;;;;;4408868;28;658149;-74
2021/10/17 02:05:14;;;;;;;63.63;26.80;;;5.50;99.90;;;;;;4435360;28;658190;-74
2021/10/17 02:08:01;;;;;;;64.70;26.73;;;5.50;99.90;;;;;;4417892;28;658073;-74
2021/10/17 02:10:51;;;;;;;50.60;24.83;;;5.40;99.90;;;;;;4433422;28;657609;-74
2021/10/17 02:13:38;;;;;;;55.67;25.30;;;5.40;99.90;;;;;;4413299;28;658919;-74
2021/10/17 02:16:26;;;;;;;65.28;27.27;;;5.40;99.90;;;;;;4417368;28;657818;-74
2021/10/17 02:19:13;;;;;;;64.07;28.53;;;5.40;99.90;;;;;;4436801;28;658573;-74
2021/10/17 02:22:01;;;;;;;58.03;27.50;;;5.40;99.90;;;;;;4413663;28;657522;-75
2021/10/17 02:24:48;;;;;;;64.70;28.77;;;5.40;99.90;;;;;;4435765;28;658196;-74
2021/10/17 02:27:37;;;;;;;55.67;26.83;;;5.40;99.90;;;;;;4415810;28;657993;-74
2021/10/17 02:30:26;;;;;;;60.63;27.50;;;5.40;99.90;;;;;;4432327;28;658160;-74
2021/10/17 02:33:13;;;;;;;58.73;26.60;;;5.40;99.90;;;;;;4439679;28;658313;-74
2021/10/17 02:36:01;;;;;;;58.07;26.57;;;5.40;99.90;;;;;;4420545;28;657702;-75
2021/10/17 02:38:49;;;;;;;57.57;26.60;;;5.30;99.90;;;;;;4435426;28;658296;-75
2021/10/17 02:41:36;;;;;;;61.20;26.53;;;5.30;99.90;;;;;;4417149;28;657501;-74
2021/10/17 02:44:25;;;;;;;61.83;26.33;;;5.30;99.90;;;;;;4437553;28;658941;-74
2021/10/17 02:47:13;;;;;;;57.63;25.90;;;5.30;99.90;;;;;;4419392;28;658186;-74
2021/10/17 02:50:00;;;;;;;53.53;25.70;;;5.30;99.90;;;;;;4428514;28;657733;-74
2021/10/17 02:52:48;;;;;;;59.10;25.47;;;5.20;99.90;;;;;;4437789;28;657703;-74
2021/10/17 02:55:35;;;;;;;59.20;25.83;;;5.20;99.90;;;;;;4416403;28;657400;-74
2021/10/17 02:58:23;;;;;;;51.43;23.37;;;5.10;99.90;;;;;;4440780;28;657518;-74
2021/10/17 03:01:12;;;;;;;52.63;22.90;;;5.20;99.90;;;;;;4413428;28;657534;-74
2021/10/17 03:03:59;;;;;;;51.20;23.03;;;5.10;99.90;;;;;;4439921;28;657883;-74
2021/10/17 03:06:47;;;;;;;52.77;24.07;;;5.10;99.90;;;;;;4413992;28;659047;-74
2021/10/17 03:09:35;;;;;;;55.13;24.73;;;5.20;99.90;;;;;;4438531;28;658448;-74
2021/10/17 03:12:22;;;;;;;57.07;23.60;;;5.10;99.90;;;;;;4415249;28;658649;-74
2021/10/17 03:15:10;;;;;;;50.40;24.07;;;5.10;99.90;;;;;;4433557;28;657623;-74
2021/10/17 03:17:59;;;;;;;47.07;21.00;;;5.10;99.90;;;;;;4420093;28;658714;-74
2021/10/17 03:20:47;;;;;;;46.97;20.60;;;5.10;99.90;;;;;;4415073;28;657755;-74
2021/10/17 03:23:34;;;;;;;55.07;21.67;;;5.10;99.90;;;;;;4444996;28;657486;-74
2021/10/17 03:26:22;;;;;;;47.43;20.40;;;5.10;99.90;;;;;;4412449;28;657932;-74
2021/10/17 03:29:09;;;;;;;47.00;18.73;;;5.10;99.90;;;;;;4441616;28;657969;-74
2021/10/17 03:31:57;;;;;;;40.07;17.23;;;5.10;99.90;;;;;;4415118;28;659011;-73
2021/10/17 03:34:46;;;;;;;39.43;16.97;;;5.10;99.90;;;;;;4436884;28;658184;-74
2021/10/17 03:37:34;;;;;;;41.97;17.07;;;5.10;99.90;;;;;;4416589;28;658574;-75
2021/10/17 03:40:21;;;;;;;35.53;15.93;;;5.10;99.90;;;;;;4417493;28;658438;-74
2021/10/17 03:43:09;;;;;;;35.30;15.83;;;5.10;99.90;;;;;;4437624;28;658165;-75
2021/10/17 03:45:56;;;;;;;38.43;15.70;;;5.20;99.90;;;;;;4417008;28;657938;-75
2021/10/17 03:48:44;;;;;;;43.93;15.93;;;5.20;99.90;;;;;;4437850;28;657883;-74
2021/10/17 03:51:33;;;;;;;34.73;15.47;;;5.20;99.90;;;;;;4417494;28;658083;-74
2021/10/17 03:54:20;;;;;;;35.60;15.20;;;5.20;99.90;;;;;;4418991;28;657459;-74
2021/10/17 03:57:08;;;;;;;32.10;15.40;;;5.10;99.90;;;;;;4438856;28;658379;-74
2021/10/17 03:59:56;;;;;;;31.57;14.23;;;5.10;99.90;;;;;;4419364;28;658855;-74
2021/10/17 04:02:43;;;;;;;33.30;13.87;;;5.10;99.90;;;;;;4443550;28;657368;-74
2021/10/17 04:05:31;;;;;;;34.00;14.07;;;5.10;99.90;;;;;;4420050;28;657801;-74
2021/10/17 04:08:20;;;;;;;33.03;13.87;;;5.10;99.90;;;;;;4443286;28;657711;-74
2021/10/17 04:11:07;;;;;;;38.97;15.47;;;5.00;99.90;;;;;;4414010;28;659130;-74
2021/10/17 04:13:55;;;;;;;35.97;15.50;;;5.00;99.90;;;;;;4438119;28;659277;-75
2021/10/17 04:16:43;;;;;;;28.30;13.37;;;5.00;99.90;;;;;;4437643;28;658128;-74
2021/10/17 04:19:31;;;;;;;32.67;13.67;;;5.00;99.90;;;;;;4420026;28;658238;-74
2021/10/17 04:22:18;;;;;;;28.90;13.57;;;5.00;99.90;;;;;;4444063;28;657924;-74
2021/10/17 04:25:08;;;;;;;35.47;13.27;;;5.00;99.90;;;;;;4419898;28;657643;-74
2021/10/17 04:27:56;;;;;;;32.43;14.30;;;5.00;99.90;;;;;;4418968;28;658144;-74
2021/10/17 04:30:43;;;;;;;29.00;13.03;;;5.00;99.90;;;;;;4437239;28;659178;-74
2021/10/17 04:33:31;;;;;;;35.40;13.73;;;5.00;99.90;;;;;;4418009;28;658576;-74
2021/10/17 04:36:18;;;;;;;30.87;14.30;;;5.00;99.90;;;;;;4441424;28;658137;-74
2021/10/17 04:39:07;;;;;;;27.83;13.50;;;4.90;99.90;;;;;;4421936;28;657428;-74
2021/10/17 04:41:56;;;;;;;34.13;14.17;;;4.90;99.90;;;;;;4441405;28;657814;-74
2021/10/17 04:44:43;;;;;;;31.73;14.67;;;4.90;99.90;;;;;;4415749;28;658231;-74
2021/10/17 04:47:31;;;;;;;38.07;15.30;;;4.80;99.90;;;;;;4419181;28;657694;-74
2021/10/17 04:50:18;;;;;;;32.43;13.63;;;4.80;99.90;;;;;;4442952;28;658551;-74
2021/10/17 04:53:06;;;;;;;30.77;13.97;;;4.90;99.90;;;;;;4422997;28;658063;-75
2021/10/17 04:55:53;;;;;;;36.30;16.43;;;4.80;99.90;;;;;;4439820;28;658205;-74
2021/10/17 04:58:42;;;;;;;35.00;14.43;;;4.80;99.90;;;;;;4417339;28;657567;-73
2021/10/17 05:02:07;;;;;;;35.10;14.00;;;4.80;99.90;;;;;;4434660;28;658092;-73
2021/10/17 05:04:55;;;;;;;34.63;14.07;;;4.80;99.90;;;;;;4411555;28;657915;-73
2021/10/17 05:07:43;;;;;;;30.40;14.23;;;4.80;99.90;;;;;;4411186;28;658561;-73
2021/10/17 05:10:31;;;;;;;32.83;13.13;;;4.80;99.90;;;;;;4418764;28;658255;-74
2021/10/17 05:13:19;;;;;;;30.20;13.53;;;4.80;99.90;;;;;;4429890;28;658212;-73
2021/10/17 05:16:08;;;;;;;33.17;14.87;;;4.70;99.90;;;;;;4410159;28;657665;-73
2021/10/17 05:18:55;;;;;;;37.73;14.70;;;4.80;99.90;;;;;;4426951;28;657569;-74
2021/10/17 05:21:43;;;;;;;38.37;16.67;;;4.80;99.90;;;;;;4441823;28;658650;-73
2021/10/17 05:24:31;;;;;;;38.60;16.77;;;4.80;99.90;;;;;;4419751;28;657481;-74
2021/10/17 05:27:18;;;;;;;31.93;13.57;;;4.80;99.90;;;;;;4442078;28;658380;-73
2021/10/17 05:30:06;;;;;;;42.00;17.17;;;4.90;99.90;;;;;;4421473;28;657863;-73
2021/10/17 05:32:55;;;;;;;36.50;16.73;;;4.90;99.90;;;;;;4436396;28;658008;-73
2021/10/17 05:35:43;;;;;;;38.07;15.43;;;5.00;99.90;;;;;;4412329;28;658490;-72
2021/10/17 05:38:30;;;;;;;32.17;14.67;;;5.00;99.90;;;;;;4414365;28;657675;-73
2021/10/17 05:41:22;;;;;;;33.57;15.13;;;5.00;99.90;;;;;;4442137;28;657006;-73
2021/10/17 05:44:09;;;;;;;29.93;14.53;;;5.00;99.90;;;;;;4415458;28;658003;-73
2021/10/17 05:46:57;;;;;;;27.50;14.03;;;5.10;99.90;;;;;;4420072;28;657470;-73
2021/10/17 05:49:46;;;;;;;31.00;14.33;;;5.10;99.90;;;;;;4440537;28;657734;-73
2021/10/17 05:52:33;;;;;;;26.97;12.77;;;5.20;99.90;;;;;;4412033;28;658554;-73
2021/10/17 05:55:21;;;;;;;32.77;13.50;;;5.20;99.90;;;;;;4419314;28;657760;-73
2021/10/17 05:58:08;;;;;;;28.93;13.17;;;5.30;99.90;;;;;;4440901;28;658139;-73
2021/10/17 06:00:56;;;;;;;26.33;12.90;;;5.40;99.90;;;;;;4418759;28;658106;-73
2021/10/17 06:03:43;;;;;;;33.47;13.77;;;5.40;99.90;;;;;;4440729;28;657935;-72
2021/10/17 06:06:32;;;;;;;34.47;12.17;;;5.40;99.90;;;;;;4415594;28;657660;-74
2021/10/17 06:09:20;;;;;;;24.20;11.97;;;5.50;99.90;;;;;;4442222;28;658166;-74
2021/10/17 06:12:08;;;;;;;34.97;12.70;;;5.60;99.90;;;;;;4408040;28;658931;-73
2021/10/17 06:14:56;;;;;;;31.27;13.67;;;5.70;99.90;;;;;;4417729;28;658177;-73
2021/10/17 06:17:43;;;;;;;37.93;18.10;;;5.80;99.90;;;;;;4438179;28;658205;-73
2021/10/17 06:20:31;;;;;;;41.30;19.47;;;5.90;99.90;;;;;;4413762;28;657511;-73
2021/10/17 06:23:20;;;;;;;42.80;19.43;;;5.90;99.90;;;;;;4434428;28;659244;-73
2021/10/17 06:26:08;;;;;;;45.70;19.47;;;5.90;99.90;;;;;;4421454;28;658410;-73
2021/10/17 06:28:55;;;;;;;56.43;24.27;;;6.00;99.90;;;;;;4427968;28;659212;-74
2021/10/17 06:31:43;;;;;;;52.10;24.33;;;6.00;99.90;;;;;;4433928;28;658626;-74
2021/10/17 06:34:30;;;;;;;53.83;23.38;;;5.90;99.90;;;;;;4417885;28;657914;-75
2021/10/17 06:37:18;;;;;;;51.97;23.03;;;5.90;99.90;;;;;;4437107;28;658561;-74
2021/10/17 06:40:09;;;;;;;50.10;24.53;;;5.90;99.90;;;;;;4420093;28;657857;-73
2021/10/17 06:42:57;;;;;;;48.97;23.35;;;6.00;99.90;;;;;;4417076;28;658270;-73
2021/10/17 06:45:45;;;;;;;54.47;24.75;;;6.10;99.90;;;;;;4433684;28;657941;-73
2021/10/17 06:48:32;;;;;;;51.93;24.43;;;6.20;99.90;;;;;;4417062;28;658956;-74
2021/10/17 06:51:20;;;;;;;58.50;25.17;;;6.30;99.90;;;;;;4441594;28;657444;-73
2021/10/17 06:54:08;;;;;;;56.00;25.87;;;6.40;99.90;;;;;;4419728;28;658659;-74
2021/10/17 06:56:57;;;;;;;58.13;27.07;;;6.50;99.90;;;;;;4433862;28;657644;-74
2021/10/17 06:59:45;;;;;;;52.67;24.63;;;6.60;99.90;;;;;;4439889;28;657891;-74
2021/10/17 07:02:32;;;;;;;60.07;25.47;;;6.70;99.90;;;;;;4416246;28;658921;-73
2021/10/17 07:05:20;;;;;;;52.97;26.00;;;6.70;99.90;;;;;;4440441;28;657298;-73
2021/10/17 07:08:07;;;;;;;51.60;24.43;;;6.80;99.90;;;;;;4418203;28;658697;-72
2021/10/17 07:10:55;;;;;;;52.20;25.07;;;6.80;99.90;;;;;;4440401;28;658118;-73
2021/10/17 07:13:44;;;;;;;55.63;27.00;;;6.90;99.90;;;;;;4418297;28;659127;-73
2021/10/17 07:16:31;;;;;;;55.50;26.23;;;7.00;99.90;;;;;;4419384;28;657732;-75
2021/10/17 07:19:19;;;;;;;54.67;26.40;;;7.00;99.90;;;;;;4438507;28;658059;-73
2021/10/17 07:22:06;;;;;;;58.90;27.73;;;6.90;99.90;;;;;;4423561;28;657497;-74
2021/10/17 07:24:54;;;;;;;53.60;28.17;;;7.00;99.90;;;;;;4439589;28;657706;-74
2021/10/17 07:27:42;;;;;;;65.90;29.07;;;7.20;99.90;;;;;;4413653;28;658024;-73
2021/10/17 07:30:31;;;;;;;62.80;30.00;;;7.20;99.90;;;;;;4440563;28;658153;-73
2021/10/17 07:33:18;;;;;;;59.97;28.10;;;7.30;99.90;;;;;;4415610;28;658774;-74
2021/10/17 07:36:06;;;;;;;50.10;25.47;;;7.30;99.90;;;;;;4418997;28;657774;-73
2021/10/17 07:38:54;;;;;;;55.70;25.43;;;7.50;99.90;;;;;;4444478;28;657793;-74
2021/10/17 07:41:47;;;;;;;53.22;23.60;;;7.50;99.90;;;;;;4421223;28;657608;-74
2021/10/17 07:44:35;;;;;;;53.43;25.60;;;7.40;99.90;;;;;;4418593;28;657451;-74
2021/10/17 07:47:24;;;;;;;45.77;22.03;;;7.40;99.90;;;;;;4414494;28;659111;-73
2021/10/17 07:50:11;;;;;;;49.27;22.87;;;7.30;99.90;;;;;;4420229;28;657977;-73
2021/10/17 07:52:59;;;;;;;50.70;23.23;;;7.40;99.90;;;;;;4443285;28;658355;-74
2021/10/17 07:55:46;;;;;;;45.60;22.13;;;7.60;99.90;;;;;;4421648;28;657907;-68
2021/10/17 07:58:34;;;;;;;45.53;22.23;;;7.70;99.90;;;;;;4436980;28;658171;-68
2021/10/17 08:01:22;;;;;;;48.00;22.73;;;7.70;99.90;;;;;;4418121;28;657313;-68
2021/10/17 08:04:10;;;;;;;51.73;25.83;;;7.80;99.90;;;;;;4441462;28;657454;-68
2021/10/17 08:06:58;;;;;;;49.17;21.77;;;7.80;99.90;;;;;;4413974;28;658972;-68
2021/10/17 08:09:46;;;;;;;51.13;22.37;;;8.00;99.90;;;;;;4421131;28;657835;-68
2021/10/17 08:12:33;;;;;;;45.03;22.30;;;8.10;99.90;;;;;;4441957;28;658087;-68
2021/10/17 08:15:23;;;;;;;52.80;24.13;;;8.20;99.90;;;;;;4419490;28;657492;-68
2021/10/17 08:18:11;;;;;;;51.43;23.20;;;8.30;99.90;;;;;;4420695;28;657639;-68
2021/10/17 08:21:00;;;;;;;46.50;22.93;;;8.60;99.90;;;;;;4440535;28;658597;-68
2021/10/17 08:23:48;;;;;;;54.83;24.50;;;8.60;99.90;;;;;;4411786;28;658550;-68
2021/10/17 08:26:36;;;;;;;50.47;23.47;;;8.50;99.90;;;;;;4417337;28;657716;-67
2021/10/17 08:29:24;;;;;;;43.60;19.87;;;8.50;99.90;;;;;;4434930;28;658791;-67
2021/10/17 08:32:11;;;;;;;36.10;17.93;;;8.60;99.90;;;;;;4419735;28;657671;-68
2021/10/17 08:34:59;;;;;;;43.47;19.17;;;8.60;99.90;;;;;;4437119;28;657946;-67
2021/10/17 08:37:48;;;;;;;45.33;21.57;;;8.80;99.90;;;;;;4417361;28;658124;-68
2021/10/17 08:40:36;;;;;;;49.37;21.17;;;9.00;99.90;;;;;;4418716;28;657750;-67
2021/10/17 08:43:24;;;;;;;43.80;19.73;;;9.10;99.90;;;;;;4433854;28;658800;-67
2021/10/17 08:46:12;;;;;;;36.73;17.60;;;9.30;99.90;;;;;;4416824;28;657911;-68
2021/10/17 08:49:00;;;;;;;42.83;17.50;;;9.40;99.90;;;;;;4439186;28;657814;-67
2021/10/17 08:51:47;;;;;;;32.53;16.17;;;9.60;99.90;;;;;;4415341;28;659417;-68
2021/10/17 08:54:37;;;;;;;39.10;17.43;;;9.70;99.90;;;;;;4436780;28;657998;-68
2021/10/17 08:57:25;;;;;;;38.07;17.10;;;9.60;99.90;;;;;;4416395;28;657695;-68
2021/10/17 09:00:29;;;;;;;31.10;14.10;;;9.80;99.90;;;;;;4415981;28;659258;-67
2021/10/17 09:03:30;;;;;;;34.83;14.47;;;9.80;99.90;;;;;;4393909;28;659335;-67
2021/10/17 09:06:18;;;;;;;30.83;15.27;;;9.90;99.90;;;;;;4418114;28;657478;-73
2021/10/17 09:09:09;;;;;;;38.13;16.03;;;9.90;99.90;;;;;;4420532;28;657729;-73
2021/10/17 09:11:58;;;;;;;32.37;15.83;;;10.10;99.90;;;;;;4414603;28;658119;-72
2021/10/17 09:14:46;;;;;;;34.13;13.57;;;10.40;99.90;;;;;;4420442;28;658801;-72
2021/10/17 09:17:34;;;;;;;27.77;11.97;;;10.70;99.90;;;;;;4433529;28;659170;-72
2021/10/17 09:20:21;;;;;;;25.97;11.43;;;10.80;99.90;;;;;;4412485;28;658727;-73
2021/10/17 09:23:09;;;;;;;24.10;10.73;;;11.20;99.90;;;;;;4437007;28;658831;-72
2021/10/17 09:25:58;;;;;;;22.73;10.10;;;11.60;99.90;;;;;;4419491;28;658810;-72
2021/10/17 09:28:47;;;;;;;21.47;9.90;;;12.10;99.90;;;;;;4422626;28;658455;-73
2021/10/17 09:31:35;;;;;;;21.30;9.03;;;12.10;99.90;;;;;;4441032;28;657769;-72
2021/10/17 09:34:27;;;;;;;17.10;8.03;;;11.70;99.90;;;;;;4411352;28;659418;-72
2021/10/17 09:37:15;;;;;;;20.17;9.00;;;11.50;99.90;;;;;;4419655;28;657163;-73
2021/10/17 09:40:04;;;;;;;18.63;9.03;;;11.00;99.90;;;;;;4408540;28;658769;-72
2021/10/17 09:43:05;;;;;;;24.00;10.60;;;10.70;99.90;;;;;;4419152;28;658911;-73
2021/10/17 09:45:56;;;;;;;29.27;11.83;;;10.40;99.90;;;;;;4397020;28;659349;-72
2021/10/17 09:48:44;;;;;;;18.87;9.73;;;10.40;99.90;;;;;;4423042;28;659956;-73
2021/10/17 09:51:32;;;;;;;23.95;9.15;;;10.40;99.90;;;;;;4416131;28;657796;-72
2021/10/17 09:54:21;;;;;;;14.00;7.07;;;10.50;99.90;;;;;;4435500;28;658294;-72
2021/10/17 09:57:09;;;;;;;15.07;5.90;;;10.60;99.90;;;;;;4419934;28;657519;-73
2021/10/17 09:59:57;;;;;;;9.73;5.43;;;10.70;99.90;;;;;;4423646;28;658035;-73
2021/10/17 10:02:47;;;;;;;16.83;7.97;;;10.80;99.90;;;;;;4443601;28;657101;-72
2021/10/17 10:05:34;;;;;;;10.68;4.78;;;10.80;99.90;;;;;;4417506;28;658182;-72
2021/10/17 10:08:22;;;;;;;9.07;4.93;;;10.90;99.90;;;;;;4417201;28;657879;-72
2021/10/17 10:11:10;;;;;;;6.73;3.50;;;11.00;99.90;;;;;;4435626;28;656492;-72
2021/10/17 10:13:58;;;;;;;10.07;4.47;;;11.10;99.90;;;;;;4419098;28;656523;-72
2021/10/17 10:16:50;;;;;;;8.70;3.50;;;11.10;99.90;;;;;;4422284;28;657443;-72
2021/10/17 10:19:39;;;;;;;8.37;3.33;;;11.20;99.90;;;;;;4418521;28;657115;-72
2021/10/17 10:22:28;;;;;;;10.33;4.60;;;11.10;99.90;;;;;;4420290;28;656104;-73
2021/10/17 10:25:16;;;;;;;11.73;3.83;;;11.10;99.90;;;;;;4415431;28;657780;-73
2021/10/17 10:28:05;;;;;;;8.97;3.90;;;10.90;99.90;;;;;;4440419;28;658362;-72
2021/10/17 10:30:53;;;;;;;6.20;3.43;;;10.60;99.90;;;;;;4426939;28;656833;-73
2021/10/17 10:33:42;;;;;;;15.23;4.40;;;10.60;99.90;;;;;;4437325;28;656715;-74
2021/10/17 10:36:40;;;;;;;6.87;4.20;;;10.80;99.90;;;;;;4443508;28;657413;-72
2021/10/17 10:39:33;;;;;;;12.67;4.80;;;10.80;99.90;;;;;;4418359;28;656913;-72
2021/10/17 10:42:22;;;;;;;12.10;4.33;;;10.80;99.90;;;;;;4411475;28;658239;-73
2021/10/17 10:45:23;;;;;;;11.23;4.47;;;10.70;99.90;;;;;;4449201;28;658618;-72
2021/10/17 10:48:19;;;;;;;9.60;3.97;;;10.70;99.90;;;;;;4421948;28;657860;-73
2021/10/17 10:51:07;;;;;;;7.53;4.20;;;10.80;99.90;;;;;;4401749;28;657334;-72
2021/10/17 10:53:56;;;;;;;12.10;5.70;;;10.80;99.90;;;;;;4446317;28;656503;-72
2021/10/17 10:56:46;;;;;;;10.97;4.77;;;11.00;99.90;;;;;;4418059;28;658457;-72
2021/10/17 10:59:58;;;;;;;10.53;5.00;;;11.20;99.90;;;;;;4418881;28;658500;-73
2021/10/17 11:03:21;;;;;;;10.00;4.00;;;11.20;99.90;;;;;;4401115;28;658188;-73
2021/10/17 11:06:18;;;;;;;8.87;4.17;;;11.30;99.90;;;;;;4423084;28;658156;-74
2021/10/17 11:09:26;;;;;;;11.03;5.73;;;11.00;99.90;;;;;;4399498;28;657155;-72
2021/10/17 11:12:32;;;;;;;7.27;4.40;;;11.10;99.90;;;;;;4411461;28;658175;-72
2021/10/17 11:15:20;;;;;;;11.57;4.43;;;11.10;99.90;;;;;;4420893;28;656592;-72
2021/10/17 11:18:08;;;;;;;14.27;5.73;;;10.80;99.90;;;;;;4411078;28;658185;-73
2021/10/17 11:20:56;;;;;;;12.00;5.53;;;10.80;99.90;;;;;;4417604;28;657539;-73
2021/10/17 11:23:44;;;;;;;12.80;6.27;;;10.90;99.90;;;;;;4443714;28;658276;-72
2021/10/17 11:26:33;;;;;;;14.07;6.43;;;11.00;99.90;;;;;;4413774;28;657442;-73
2021/10/17 11:29:21;;;;;;;14.60;5.47;;;11.30;99.90;;;;;;4413978;28;657923;-73
2021/10/17 11:32:09;;;;;;;9.03;4.70;;;11.50;99.90;;;;;;4436190;28;658382;-73
2021/10/17 11:34:58;;;;;;;13.30;5.47;;;11.50;99.90;;;;;;4415751;28;657934;-72
2021/10/17 11:37:52;;;;;;;12.70;5.50;;;11.20;99.90;;;;;;4424898;28;657938;-73
2021/10/17 11:40:39;;;;;;;12.57;5.77;;;11.20;99.90;;;;;;4413316;28;658078;-72
2021/10/17 11:43:37;;;;;;;14.10;5.57;;;11.20;99.90;;;;;;4413254;28;657641;-73
2021/10/17 11:46:27;;;;;;;12.00;5.57;;;11.30;99.90;;;;;;4410500;28;657446;-73
2021/10/17 11:49:20;;;;;;;14.70;6.00;;;11.40;99.90;;;;;;4410761;28;658258;-73
2021/10/17 11:52:11;;;;;;;17.17;5.17;;;11.70;99.90;;;;;;4409608;28;658648;-73
2021/10/17 11:54:59;;;;;;;13.00;5.00;;;11.60;99.90;;;;;;4411507;28;658626;-72
2021/10/17 11:57:47;;;;;;;11.83;5.50;;;11.80;99.90;;;;;;4414641;28;657311;-72
2021/10/17 12:00:36;;;;;;;12.57;5.47;;;11.80;99.90;;;;;;4436391;28;657578;-73
2021/10/17 12:03:24;;;;;;;13.27;5.30;;;11.70;98.20;;;;;;4414836;28;658582;-73
2021/10/17 12:06:16;;;;;;;12.87;4.70;;;11.60;98.50;;;;;;4413545;28;658316;-72
2021/10/17 12:09:03;;;;;;;13.70;4.90;;;11.70;97.80;;;;;;4410041;28;659422;-73
2021/10/17 12:11:59;;;;;;;8.80;4.30;;;11.90;97.90;;;;;;4414406;28;657670;-73
2021/10/17 12:14:46;;;;;;;10.07;4.47;;;12.00;98.60;;;;;;4415467;28;656590;-73
2021/10/17 12:17:35;;;;;;;11.13;4.70;;;12.10;96.70;;;;;;4431719;28;657447;-74
2021/10/17 12:20:23;;;;;;;11.27;4.87;;;12.20;97.90;;;;;;4417043;28;659959;-72
2021/10/17 12:23:10;;;;;;;10.87;4.10;;;12.30;97.90;;;;;;4413761;28;657778;-73
2021/10/17 12:25:58;;;;;;;10.33;4.10;;;12.10;97.30;;;;;;4436963;28;659464;-72
2021/10/17 12:29:01;;;;;;;10.47;4.80;;;11.90;97.60;;;;;;4414518;28;658860;-74
2021/10/17 12:31:52;;;;;;;10.17;4.03;;;11.70;98.60;;;;;;4409641;28;658446;-72
2021/10/17 12:34:42;;;;;;;8.63;3.67;;;12.10;98.90;;;;;;4410391;28;657743;-74
2021/10/17 12:37:30;;;;;;;11.25;3.88;;;12.70;96.60;;;;;;4411187;28;657359;-72
2021/10/17 12:40:17;;;;;;;16.80;4.90;;;13.60;93.80;;;;;;4397201;28;658391;-72
2021/10/17 12:43:05;;;;;;;7.37;3.63;;;13.80;95.20;;;;;;4419230;28;659405;-73
2021/10/17 12:45:52;;;;;;;11.93;4.07;;;13.60;92.90;;;;;;4394813;28;657625;-73
2021/10/17 12:48:41;;;;;;;9.67;4.07;;;13.10;91.90;;;;;;4418061;28;657919;-75
2021/10/17 12:51:32;;;;;;;6.97;4.17;;;12.90;92.70;;;;;;4422274;28;656453;-73
2021/10/17 12:54:25;;;;;;;12.23;4.13;;;12.90;94.10;;;;;;4405779;28;656593;-72
2021/10/17 12:57:13;;;;;;;9.10;4.00;;;12.70;94.20;;;;;;4397173;28;658526;-71
2021/10/17 13:00:02;;;;;;;8.40;3.70;;;12.60;93.40;;;;;;4410708;28;657228;-73
2021/10/17 13:02:49;;;;;;;5.93;3.70;;;12.50;94.10;;;;;;4432532;28;656609;-72
2021/10/17 13:05:49;;;;;;;11.30;3.83;;;13.00;93.10;;;;;;4404150;28;656309;-74
2021/10/17 13:08:38;;;;;;;11.07;3.70;;;12.60;93.30;;;;;;4406601;28;657355;-72
2021/10/17 13:11:26;;;;;;;9.63;3.37;;;12.60;93.40;;;;;;4405077;28;657720;-73
2021/10/17 13:14:14;;;;;;;11.53;3.57;;;12.40;93.60;;;;;;4423906;28;657058;-73
2021/10/17 13:17:01;;;;;;;8.30;3.77;;;11.90;94.70;;;;;;4408060;28;657780;-76
2021/10/17 13:19:49;;;;;;;9.27;3.80;;;11.90;95.40;;;;;;4428886;28;657006;-74
2021/10/17 13:22:37;;;;;;;11.07;5.60;;;11.80;94.80;;;;;;4407481;28;656533;-72
2021/10/17 13:25:26;;;;;;;9.53;3.90;;;12.00;95.40;;;;;;4422210;28;658528;-73
2021/10/17 13:28:14;;;;;;;9.70;4.53;;;12.80;95.90;;;;;;4401042;28;658092;-74
2021/10/17 13:31:01;;;;;;;7.70;4.17;;;13.70;93.70;;;;;;4410593;28;657518;-74
2021/10/17 13:33:49;;;;;;;10.97;4.03;;;14.90;92.80;;;;;;4429369;28;657264;-74
2021/10/17 13:36:36;;;;;;;8.53;3.87;;;15.50;90.80;;;;;;4406574;28;658213;-75
2021/10/17 13:39:24;;;;;;;10.67;3.50;;;16.50;90.00;;;;;;4436261;28;656796;-74
2021/10/17 13:42:13;;;;;;;8.47;3.80;;;17.10;84.60;;;;;;4421929;28;657636;-73
2021/10/17 13:45:01;;;;;;;14.73;5.67;;;18.30;81.20;;;;;;4423644;28;656877;-75
2021/10/17 13:47:48;;;;;;;8.60;4.17;;;19.80;76.20;;;;;;4445463;28;658975;-76
2021/10/17 13:50:36;;;;;;;10.57;4.67;;;20.40;69.40;;;;;;4417870;28;656611;-74
2021/10/17 13:53:24;;;;;;;10.93;5.40;;;21.50;65.50;;;;;;4442239;28;659025;-77
2021/10/17 13:56:11;;;;;;;9.63;4.63;;;22.90;60.60;;;;;;4414051;28;657831;-75
2021/10/17 13:59:01;;;;;;;15.70;7.43;;;23.60;54.90;;;;;;4438057;28;657059;-75
2021/10/17 14:01:48;;;;;;;7.33;3.50;;;23.60;52.40;;;;;;4411511;28;658714;-75
2021/10/17 14:04:36;;;;;;;7.50;3.80;;;23.20;52.70;;;;;;4415901;28;656533;-73
2021/10/17 14:07:23;;;;;;;8.53;3.60;;;22.70;52.20;;;;;;4439124;28;656915;-75
2021/10/17 14:10:11;;;;;;;10.47;5.47;;;22.10;49.70;;;;;;4416366;28;656572;-77
2021/10/17 14:12:59;;;;;;;14.10;6.27;;;20.90;51.80;;;;;;4434441;28;658062;-75
2021/10/17 14:15:48;;;;;;;10.47;4.17;;;20.20;54.00;;;;;;4414453;28;657387;-74
2021/10/17 14:18:37;;;;;;;7.97;3.83;;;20.10;53.90;;;;;;4416917;28;657636;-74